sensor_id;sensor_type;location;lat;lon;timestamp;temperature;humidity
1307;DHT22;646;48.696;9.114;2023-02-03T00:02:08;6.00;99.90
1307;DHT22;646;48.696;9.114;2023-02-03T00:04:33;5.70;99.90
1307;DHT22;646;48.696;9.114;2023-02-03T00:06:59;5.70;99.90
1307;DHT22;646;48.696;9.114;2023-02-03T00:09:24;5.80;99.90
1307;DHT22;646;48.696;9.114;2023-02-03T00:11:50;5.40;99.90
1307;DHT22;646;48.696;9.114;2023-02-03T00:14:19;5.70;99.90
1307;DHT22;646;48.696;9.114;2023-02-03T00:16:44;6.00;99.90
1307;DHT22;646;48.696;9.114;2023-02-03T00:19:10;5.60;99.90
1307;DHT22;646;48.696;9.114;2023-02-03T00:21:35;6.00;99.90
1307;DHT22;646;48.696;9.114;2023-02-03T00:24:01;6.00;99.90
1307;DHT22;646;48.696;9.114;2023-02-03T00:26:26;5.70;99.90
1307;DHT22;646;48.696;9.114;2023-02-03T00:28:53;5.40;99.90
1307;DHT22;646;48.696;9.114;2023-02-03T00:31:23;6.00;99.90
1307;DHT22;646;48.696;9.114;2023-02-03T00:33:55;6.00;99.90
1307;DHT22;646;48.696;9.114;2023-02-03T00:36:21;5.50;99.90
1307;DHT22;646;48.696;9.114;2023-02-03T00:38:47;5.60;99.90
1307;DHT22;646;48.696;9.114;2023-02-03T00:41:14;5.90;99.90
1307;DHT22;646;48.696;9.114;2023-02-03T00:43:40;5.80;99.90
1307;DHT22;646;48.696;9.114;2023-02-03T00:46:05;5.90;99.90
1307;DHT22;646;48.696;9.114;2023-02-03T00:48:31;5.40;99.90
1307;DHT22;646;48.696;9.114;2023-02-03T00:50:56;5.30;99.90
1307;DHT22;646;48.696;9.114;2023-02-03T00:53:22;6.00;99.90
1307;DHT22;646;48.696;9.114;2023-02-03T00:55:47;6.00;99.90
1307;DHT22;646;48.696;9.114;2023-02-03T00:58:13;5.80;99.90
1307;DHT22;646;48.696;9.114;2023-02-03T01:00:38;5.90;99.90
1307;DHT22;646;48.696;9.114;2023-02-03T01:03:04;5.10;99.90
1307;DHT22;646;48.696;9.114;2023-02-03T01:05:30;5.50;99.90
1307;DHT22;646;48.696;9.114;2023-02-03T01:07:55;6.00;99.90
1307;DHT22;646;48.696;9.114;2023-02-03T01:10:21;5.70;99.90
1307;DHT22;646;48.696;9.114;2023-02-03T01:12:46;6.00;99.90
1307;DHT22;646;48.696;9.114;2023-02-03T01:15:12;5.50;99.90
1307;DHT22;646;48.696;9.114;2023-02-03T01:17:37;5.70;99.90
1307;DHT22;646;48.696;9.114;2023-02-03T01:20:03;5.70;99.90
1307;DHT22;646;48.696;9.114;2023-02-03T01:22:30;5.60;99.90
1307;DHT22;646;48.696;9.114;2023-02-03T01:24:55;5.80;99.90
1307;DHT22;646;48.696;9.114;2023-02-03T01:27:21;5.30;99.90
1307;DHT22;646;48.696;9.114;2023-02-03T01:29:46;5.50;99.90
1307;DHT22;646;48.696;9.114;2023-02-03T01:32:12;5.60;99.90
1307;DHT22;646;48.696;9.114;2023-02-03T01:34:50;5.80;99.90
1307;DHT22;646;48.696;9.114;2023-02-03T01:37:25;5.40;99.90
1307;DHT22;646;48.696;9.114;2023-02-03T01:39:51;5.70;99.90
1307;DHT22;646;48.696;9.114;2023-02-03T01:42:16;5.70;99.90
1307;DHT22;646;48.696;9.114;2023-02-03T01:44:45;5.40;99.90
1307;DHT22;646;48.696;9.114;2023-02-03T01:47:33;5.90;99.90
1307;DHT22;646;48.696;9.114;2023-02-03T01:50:19;5.80;99.90
1307;DHT22;646;48.696;9.114;2023-02-03T01:52:51;5.10;99.90
1307;DHT22;646;48.696;9.114;2023-02-03T01:55:21;5.80;99.90
1307;DHT22;646;48.696;9.114;2023-02-03T01:57:58;5.70;99.90
1307;DHT22;646;48.696;9.114;2023-02-03T02:00:26;5.50;99.90
1307;DHT22;646;48.696;9.114;2023-02-03T02:02:52;5.60;99.90
1307;DHT22;646;48.696;9.114;2023-02-03T02:05:34;5.60;99.90
1307;DHT22;646;48.696;9.114;2023-02-03T02:08:02;5.80;99.90
1307;DHT22;646;48.696;9.114;2023-02-03T02:10:29;5.80;99.90
1307;DHT22;646;48.696;9.114;2023-02-03T02:12:56;5.50;99.90
1307;DHT22;646;48.696;9.114;2023-02-03T02:15:31;5.80;99.90
1307;DHT22;646;48.696;9.114;2023-02-03T02:18:27;5.90;99.90
1307;DHT22;646;48.696;9.114;2023-02-03T02:21:15;5.90;99.90
1307;DHT22;646;48.696;9.114;2023-02-03T02:24:13;6.00;99.90
1307;DHT22;646;48.696;9.114;2023-02-03T02:32:27;5.90;99.90
1307;DHT22;646;48.696;9.114;2023-02-03T02:37:34;6.00;99.90
1307;DHT22;646;48.696;9.114;2023-02-03T02:45:47;5.90;99.90
1307;DHT22;646;48.696;9.114;2023-02-03T02:48:25;6.00;99.90
1307;DHT22;646;48.696;9.114;2023-02-03T02:50:55;6.00;99.90
1307;DHT22;646;48.696;9.114;2023-02-03T02:53:25;6.00;99.90
1307;DHT22;646;48.696;9.114;2023-02-03T02:55:52;5.60;99.90
1307;DHT22;646;48.696;9.114;2023-02-03T02:58:20;5.80;99.90
1307;DHT22;646;48.696;9.114;2023-02-03T03:00:46;5.70;99.90
1307;DHT22;646;48.696;9.114;2023-02-03T03:03:15;5.80;99.90
1307;DHT22;646;48.696;9.114;2023-02-03T03:05:43;5.50;99.90
1307;DHT22;646;48.696;9.114;2023-02-03T03:08:11;5.60;99.90
1307;DHT22;646;48.696;9.114;2023-02-03T03:10:44;5.50;99.90
1307;DHT22;646;48.696;9.114;2023-02-03T03:13:24;5.90;99.90
1307;DHT22;646;48.696;9.114;2023-02-03T03:15:53;5.70;99.90
1307;DHT22;646;48.696;9.114;2023-02-03T03:18:26;5.70;99.90
1307;DHT22;646;48.696;9.114;2023-02-03T03:20:55;5.70;99.90
1307;DHT22;646;48.696;9.114;2023-02-03T03:23:25;5.70;99.90
1307;DHT22;646;48.696;9.114;2023-02-03T03:26:13;5.90;99.90
1307;DHT22;646;48.696;9.114;2023-02-03T03:28:51;5.70;99.90
1307;DHT22;646;48.696;9.114;2023-02-03T03:31:19;5.90;99.90
1307;DHT22;646;48.696;9.114;2023-02-03T03:33:45;5.40;99.90
1307;DHT22;646;48.696;9.114;2023-02-03T03:37:19;5.70;99.90
1307;DHT22;646;48.696;9.114;2023-02-03T03:39:23;5.50;99.90
1307;DHT22;646;48.696;9.114;2023-02-03T03:44:51;5.80;99.90
1307;DHT22;646;48.696;9.114;2023-02-03T03:47:48;5.60;99.90
1307;DHT22;646;48.696;9.114;2023-02-03T03:50:25;5.00;99.90
1307;DHT22;646;48.696;9.114;2023-02-03T03:52:54;5.60;99.90
1307;DHT22;646;48.696;9.114;2023-02-03T03:55:20;5.40;99.90
1307;DHT22;646;48.696;9.114;2023-02-03T03:57:55;5.40;99.90
1307;DHT22;646;48.696;9.114;2023-02-03T04:00:23;5.60;99.90
1307;DHT22;646;48.696;9.114;2023-02-03T04:02:52;5.70;99.90
1307;DHT22;646;48.696;9.114;2023-02-03T04:05:18;5.80;99.90
1307;DHT22;646;48.696;9.114;2023-02-03T04:07:45;5.70;99.90
1307;DHT22;646;48.696;9.114;2023-02-03T04:10:26;5.70;99.90
1307;DHT22;646;48.696;9.114;2023-02-03T04:12:54;5.90;99.90
1307;DHT22;646;48.696;9.114;2023-02-03T04:15:20;5.80;99.90
1307;DHT22;646;48.696;9.114;2023-02-03T04:17:46;5.60;99.90
1307;DHT22;646;48.696;9.114;2023-02-03T04:20:12;5.90;99.90
1307;DHT22;646;48.696;9.114;2023-02-03T04:22:37;5.80;99.90
1307;DHT22;646;48.696;9.114;2023-02-03T04:25:03;5.50;99.90
1307;DHT22;646;48.696;9.114;2023-02-03T04:27:28;5.40;99.90
1307;DHT22;646;48.696;9.114;2023-02-03T04:29:54;5.40;99.90
1307;DHT22;646;48.696;9.114;2023-02-03T04:32:19;5.40;99.90
1307;DHT22;646;48.696;9.114;2023-02-03T04:34:45;5.50;99.90
1307;DHT22;646;48.696;9.114;2023-02-03T04:37:11;5.60;99.90
1307;DHT22;646;48.696;9.114;2023-02-03T04:39:37;4.80;99.90
1307;DHT22;646;48.696;9.114;2023-02-03T04:42:02;5.10;99.90
1307;DHT22;646;48.696;9.114;2023-02-03T04:44:28;5.30;99.90
1307;DHT22;646;48.696;9.114;2023-02-03T04:46:53;4.60;99.90
1307;DHT22;646;48.696;9.114;2023-02-03T04:49:19;4.70;99.90
1307;DHT22;646;48.696;9.114;2023-02-03T04:51:44;5.40;99.90
1307;DHT22;646;48.696;9.114;2023-02-03T04:54:12;5.20;99.90
1307;DHT22;646;48.696;9.114;2023-02-03T04:56:37;5.20;99.90
1307;DHT22;646;48.696;9.114;2023-02-03T04:59:03;5.10;99.90
1307;DHT22;646;48.696;9.114;2023-02-03T05:01:29;4.60;99.90
1307;DHT22;646;48.696;9.114;2023-02-03T05:03:54;5.00;99.90
1307;DHT22;646;48.696;9.114;2023-02-03T05:06:24;4.70;99.90
1307;DHT22;646;48.696;9.114;2023-02-03T05:08:53;5.40;99.90
1307;DHT22;646;48.696;9.114;2023-02-03T05:11:20;5.30;99.90
1307;DHT22;646;48.696;9.114;2023-02-03T05:13:46;4.90;99.90
1307;DHT22;646;48.696;9.114;2023-02-03T05:16:11;4.70;99.90
1307;DHT22;646;48.696;9.114;2023-02-03T05:18:37;5.10;99.90
1307;DHT22;646;48.696;9.114;2023-02-03T05:21:03;5.00;99.90
1307;DHT22;646;48.696;9.114;2023-02-03T05:23:28;5.20;99.90
1307;DHT22;646;48.696;9.114;2023-02-03T05:25:54;5.20;99.90
1307;DHT22;646;48.696;9.114;2023-02-03T05:28:19;4.80;99.90
1307;DHT22;646;48.696;9.114;2023-02-03T05:30:45;5.10;99.90
1307;DHT22;646;48.696;9.114;2023-02-03T05:33:10;5.20;99.90
1307;DHT22;646;48.696;9.114;2023-02-03T05:35:36;5.00;99.90
1307;DHT22;646;48.696;9.114;2023-02-03T05:38:01;5.20;99.90
1307;DHT22;646;48.696;9.114;2023-02-03T05:40:27;5.30;99.90
1307;DHT22;646;48.696;9.114;2023-02-03T05:43:11;5.10;99.90
1307;DHT22;646;48.696;9.114;2023-02-03T05:45:37;5.50;99.90
1307;DHT22;646;48.696;9.114;2023-02-03T05:48:03;5.20;99.90
1307;DHT22;646;48.696;9.114;2023-02-03T05:50:29;5.00;99.90
1307;DHT22;646;48.696;9.114;2023-02-03T05:52:58;5.20;99.90
1307;DHT22;646;48.696;9.114;2023-02-03T05:55:25;5.20;99.90
1307;DHT22;646;48.696;9.114;2023-02-03T05:57:50;5.00;99.90
1307;DHT22;646;48.696;9.114;2023-02-03T06:00:16;4.70;99.90
1307;DHT22;646;48.696;9.114;2023-02-03T06:02:56;4.90;99.90
1307;DHT22;646;48.696;9.114;2023-02-03T06:05:23;4.90;99.90
1307;DHT22;646;48.696;9.114;2023-02-03T06:07:49;4.60;99.90
1307;DHT22;646;48.696;9.114;2023-02-03T06:10:15;5.10;99.90
1307;DHT22;646;48.696;9.114;2023-02-03T06:12:41;5.10;99.90
1307;DHT22;646;48.696;9.114;2023-02-03T06:15:07;5.50;99.90
1307;DHT22;646;48.696;9.114;2023-02-03T06:17:33;5.10;99.90
1307;DHT22;646;48.696;9.114;2023-02-03T06:20:06;5.10;99.90
1307;DHT22;646;48.696;9.114;2023-02-03T06:22:33;5.20;99.90
1307;DHT22;646;48.696;9.114;2023-02-03T06:24:58;5.20;99.90
1307;DHT22;646;48.696;9.114;2023-02-03T06:27:24;5.00;99.90
1307;DHT22;646;48.696;9.114;2023-02-03T06:29:49;5.10;99.90
1307;DHT22;646;48.696;9.114;2023-02-03T06:32:15;5.10;99.90
1307;DHT22;646;48.696;9.114;2023-02-03T06:34:41;5.00;99.90
1307;DHT22;646;48.696;9.114;2023-02-03T06:37:06;5.10;99.90
1307;DHT22;646;48.696;9.114;2023-02-03T06:39:32;5.40;99.90
1307;DHT22;646;48.696;9.114;2023-02-03T06:41:57;5.30;99.90
1307;DHT22;646;48.696;9.114;2023-02-03T06:44:23;5.00;99.90
1307;DHT22;646;48.696;9.114;2023-02-03T06:46:49;5.10;99.90
1307;DHT22;646;48.696;9.114;2023-02-03T06:49:15;5.10;99.90
1307;DHT22;646;48.696;9.114;2023-02-03T06:51:42;4.90;99.90
1307;DHT22;646;48.696;9.114;2023-02-03T06:54:09;5.00;99.90
1307;DHT22;646;48.696;9.114;2023-02-03T06:56:34;5.00;99.90
1307;DHT22;646;48.696;9.114;2023-02-03T06:59:00;5.00;99.90
1307;DHT22;646;48.696;9.114;2023-02-03T07:01:25;5.20;99.90
1307;DHT22;646;48.696;9.114;2023-02-03T07:03:51;5.30;99.90
1307;DHT22;646;48.696;9.114;2023-02-03T07:06:17;5.00;99.90
1307;DHT22;646;48.696;9.114;2023-02-03T07:08:42;5.10;99.90
1307;DHT22;646;48.696;9.114;2023-02-03T07:11:08;5.00;99.90
1307;DHT22;646;48.696;9.114;2023-02-03T07:13:34;5.00;99.90
1307;DHT22;646;48.696;9.114;2023-02-03T07:15:59;5.10;99.90
1307;DHT22;646;48.696;9.114;2023-02-03T07:18:25;4.90;99.90
1307;DHT22;646;48.696;9.114;2023-02-03T07:20:51;4.40;99.90
1307;DHT22;646;48.696;9.114;2023-02-03T07:23:17;4.80;99.90
1307;DHT22;646;48.696;9.114;2023-02-03T07:25:43;5.00;99.90
1307;DHT22;646;48.696;9.114;2023-02-03T07:28:08;5.10;99.90
1307;DHT22;646;48.696;9.114;2023-02-03T07:30:34;5.00;99.90
1307;DHT22;646;48.696;9.114;2023-02-03T07:32:59;4.80;99.90
1307;DHT22;646;48.696;9.114;2023-02-03T07:35:25;5.10;99.90
1307;DHT22;646;48.696;9.114;2023-02-03T07:37:51;5.10;99.90
1307;DHT22;646;48.696;9.114;2023-02-03T07:40:17;5.00;99.90
1307;DHT22;646;48.696;9.114;2023-02-03T07:42:45;4.90;99.90
1307;DHT22;646;48.696;9.114;2023-02-03T07:45:11;5.10;99.90
1307;DHT22;646;48.696;9.114;2023-02-03T07:47:37;5.40;99.90
1307;DHT22;646;48.696;9.114;2023-02-03T07:50:03;4.70;99.90
1307;DHT22;646;48.696;9.114;2023-02-03T07:52:29;4.80;99.90
1307;DHT22;646;48.696;9.114;2023-02-03T07:54:54;5.20;99.90
1307;DHT22;646;48.696;9.114;2023-02-03T07:57:20;5.20;99.90
1307;DHT22;646;48.696;9.114;2023-02-03T07:59:45;5.10;99.90
1307;DHT22;646;48.696;9.114;2023-02-03T08:02:11;5.60;99.90
1307;DHT22;646;48.696;9.114;2023-02-03T08:04:37;5.80;99.90
1307;DHT22;646;48.696;9.114;2023-02-03T08:07:03;5.10;99.90
1307;DHT22;646;48.696;9.114;2023-02-03T08:09:28;5.20;99.90
1307;DHT22;646;48.696;9.114;2023-02-03T08:11:54;5.50;99.90
1307;DHT22;646;48.696;9.114;2023-02-03T08:14:19;4.70;99.90
1307;DHT22;646;48.696;9.114;2023-02-03T08:16:45;5.40;99.90
1307;DHT22;646;48.696;9.114;2023-02-03T08:19:11;5.30;99.90
1307;DHT22;646;48.696;9.114;2023-02-03T08:21:37;5.40;99.90
1307;DHT22;646;48.696;9.114;2023-02-03T08:24:03;5.10;99.90
1307;DHT22;646;48.696;9.114;2023-02-03T08:26:28;5.70;99.90
1307;DHT22;646;48.696;9.114;2023-02-03T08:28:54;5.70;99.90
1307;DHT22;646;48.696;9.114;2023-02-03T08:31:19;4.90;99.90
1307;DHT22;646;48.696;9.114;2023-02-03T08:33:45;5.40;99.90
1307;DHT22;646;48.696;9.114;2023-02-03T08:36:11;5.20;99.90
1307;DHT22;646;48.696;9.114;2023-02-03T08:38:37;5.70;99.90
1307;DHT22;646;48.696;9.114;2023-02-03T08:41:14;5.70;99.90
1307;DHT22;646;48.696;9.114;2023-02-03T08:43:40;5.90;99.90
1307;DHT22;646;48.696;9.114;2023-02-03T08:46:07;5.70;99.90
1307;DHT22;646;48.696;9.114;2023-02-03T08:48:33;5.70;99.90
1307;DHT22;646;48.696;9.114;2023-02-03T08:50:59;5.80;99.90
1307;DHT22;646;48.696;9.114;2023-02-03T08:53:25;5.60;99.90
1307;DHT22;646;48.696;9.114;2023-02-03T08:55:51;5.80;99.90
1307;DHT22;646;48.696;9.114;2023-02-03T08:58:16;6.00;99.90
1307;DHT22;646;48.696;9.114;2023-02-03T09:00:42;5.90;99.90
1307;DHT22;646;48.696;9.114;2023-02-03T09:03:08;6.00;99.90
1307;DHT22;646;48.696;9.114;2023-02-03T09:05:34;5.60;99.90
1307;DHT22;646;48.696;9.114;2023-02-03T09:08:00;5.40;99.90
1307;DHT22;646;48.696;9.114;2023-02-03T09:10:25;6.00;99.90
1307;DHT22;646;48.696;9.114;2023-02-03T09:12:51;5.60;99.90
1307;DHT22;646;48.696;9.114;2023-02-03T09:15:19;6.20;99.90
1307;DHT22;646;48.696;9.114;2023-02-03T09:17:45;6.00;99.90
1307;DHT22;646;48.696;9.114;2023-02-03T09:20:10;5.60;99.90
1307;DHT22;646;48.696;9.114;2023-02-03T09:22:39;6.00;99.90
1307;DHT22;646;48.696;9.114;2023-02-03T09:25:05;6.10;99.90
1307;DHT22;646;48.696;9.114;2023-02-03T09:27:31;6.20;99.90
1307;DHT22;646;48.696;9.114;2023-02-03T09:29:56;6.30;99.90
1307;DHT22;646;48.696;9.114;2023-02-03T09:32:22;6.20;99.90
1307;DHT22;646;48.696;9.114;2023-02-03T09:34:48;6.30;99.90
1307;DHT22;646;48.696;9.114;2023-02-03T09:37:13;6.40;99.90
1307;DHT22;646;48.696;9.114;2023-02-03T09:39:39;5.90;99.90
1307;DHT22;646;48.696;9.114;2023-02-03T09:42:10;6.10;99.90
1307;DHT22;646;48.696;9.114;2023-02-03T09:47:25;6.40;99.90
1307;DHT22;646;48.696;9.114;2023-02-03T09:49:58;6.50;99.90
1307;DHT22;646;48.696;9.114;2023-02-03T09:52:34;6.40;99.90
1307;DHT22;646;48.696;9.114;2023-02-03T09:58:05;6.70;99.90
1307;DHT22;646;48.696;9.114;2023-02-03T10:14:45;7.50;99.90
1307;DHT22;646;48.696;9.114;2023-02-03T10:17:35;8.40;99.90
1307;DHT22;646;48.696;9.114;2023-02-03T10:22:39;8.00;99.90
1307;DHT22;646;48.696;9.114;2023-02-03T10:27:59;8.10;99.90
1307;DHT22;646;48.696;9.114;2023-02-03T10:30:31;7.90;99.90
1307;DHT22;646;48.696;9.114;2023-02-03T10:33:09;7.90;99.90
1307;DHT22;646;48.696;9.114;2023-02-03T10:35:50;7.70;99.90
1307;DHT22;646;48.696;9.114;2023-02-03T10:38:58;7.60;99.90
1307;DHT22;646;48.696;9.114;2023-02-03T10:41:28;7.50;99.90
1307;DHT22;646;48.696;9.114;2023-02-03T10:43:54;7.30;99.90
1307;DHT22;646;48.696;9.114;2023-02-03T10:46:29;7.30;99.90
1307;DHT22;646;48.696;9.114;2023-02-03T10:48:56;7.40;99.90
1307;DHT22;646;48.696;9.114;2023-02-03T10:51:23;7.40;99.90
1307;DHT22;646;48.696;9.114;2023-02-03T10:53:49;7.40;99.90
1307;DHT22;646;48.696;9.114;2023-02-03T10:56:20;7.40;99.90
1307;DHT22;646;48.696;9.114;2023-02-03T10:58:57;7.20;99.90
1307;DHT22;646;48.696;9.114;2023-02-03T11:01:45;7.50;99.90
1307;DHT22;646;48.696;9.114;2023-02-03T11:04:31;8.00;99.90
1307;DHT22;646;48.696;9.114;2023-02-03T11:07:03;7.90;99.90
1307;DHT22;646;48.696;9.114;2023-02-03T11:09:33;8.40;99.90
1307;DHT22;646;48.696;9.114;2023-02-03T11:12:17;8.50;99.90
1307;DHT22;646;48.696;9.114;2023-02-03T11:14:45;8.50;99.90
1307;DHT22;646;48.696;9.114;2023-02-03T11:17:21;8.90;99.90
1307;DHT22;646;48.696;9.114;2023-02-03T11:20:02;8.50;99.90
1307;DHT22;646;48.696;9.114;2023-02-03T11:22:29;8.50;99.90
1307;DHT22;646;48.696;9.114;2023-02-03T11:24:57;8.00;99.90
1307;DHT22;646;48.696;9.114;2023-02-03T11:27:23;8.50;99.90
1307;DHT22;646;48.696;9.114;2023-02-03T11:30:26;8.20;99.90
1307;DHT22;646;48.696;9.114;2023-02-03T11:32:45;8.20;99.90
1307;DHT22;646;48.696;9.114;2023-02-03T11:37:39;8.10;99.90
1307;DHT22;646;48.696;9.114;2023-02-03T11:42:41;7.70;99.90
1307;DHT22;646;48.696;9.114;2023-02-03T11:45:34;7.60;99.90
1307;DHT22;646;48.696;9.114;2023-02-03T11:59:04;7.50;99.90
1307;DHT22;646;48.696;9.114;2023-02-03T12:12:42;7.80;99.90
1307;DHT22;646;48.696;9.114;2023-02-03T12:29:00;7.70;99.90
1307;DHT22;646;48.696;9.114;2023-02-03T12:36:37;8.00;99.90
1307;DHT22;646;48.696;9.114;2023-02-03T12:39:22;7.90;99.90
1307;DHT22;646;48.696;9.114;2023-02-03T12:41:59;8.00;99.90
1307;DHT22;646;48.696;9.114;2023-02-03T12:44:39;7.40;99.90
1307;DHT22;646;48.696;9.114;2023-02-03T12:47:20;7.80;99.90
1307;DHT22;646;48.696;9.114;2023-02-03T12:49:56;8.20;99.90
1307;DHT22;646;48.696;9.114;2023-02-03T12:52:37;8.00;99.90
1307;DHT22;646;48.696;9.114;2023-02-03T12:57:51;7.90;99.90
1307;DHT22;646;48.696;9.114;2023-02-03T13:03:26;7.80;99.90
1307;DHT22;646;48.696;9.114;2023-02-03T13:06:05;7.70;99.90
1307;DHT22;646;48.696;9.114;2023-02-03T13:08:38;7.70;99.90
1307;DHT22;646;48.696;9.114;2023-02-03T13:11:34;7.50;99.90
1307;DHT22;646;48.696;9.114;2023-02-03T13:14:18;7.70;99.90
1307;DHT22;646;48.696;9.114;2023-02-03T13:17:05;8.10;99.90
1307;DHT22;646;48.696;9.114;2023-02-03T13:19:47;8.00;99.90
1307;DHT22;646;48.696;9.114;2023-02-03T13:22:14;7.90;99.90
1307;DHT22;646;48.696;9.114;2023-02-03T13:25:08;8.10;99.90
1307;DHT22;646;48.696;9.114;2023-02-03T13:27:41;8.20;99.90
1307;DHT22;646;48.696;9.114;2023-02-03T13:30:28;8.10;99.90
1307;DHT22;646;48.696;9.114;2023-02-03T13:33:15;8.20;99.90
1307;DHT22;646;48.696;9.114;2023-02-03T13:36:00;8.10;99.90
1307;DHT22;646;48.696;9.114;2023-02-03T13:38:44;7.80;99.90
1307;DHT22;646;48.696;9.114;2023-02-03T13:43:44;8.00;99.90
1307;DHT22;646;48.696;9.114;2023-02-03T13:46:26;8.30;99.90
1307;DHT22;646;48.696;9.114;2023-02-03T13:48:56;8.10;99.90
1307;DHT22;646;48.696;9.114;2023-02-03T13:51:25;8.00;99.90
1307;DHT22;646;48.696;9.114;2023-02-03T13:54:03;8.10;99.90
1307;DHT22;646;48.696;9.114;2023-02-03T13:56:30;7.60;99.90
1307;DHT22;646;48.696;9.114;2023-02-03T13:59:26;8.20;99.90
1307;DHT22;646;48.696;9.114;2023-02-03T14:04:54;8.20;99.90
1307;DHT22;646;48.696;9.114;2023-02-03T14:12:38;7.80;99.90
1307;DHT22;646;48.696;9.114;2023-02-03T14:23:07;8.30;99.90
1307;DHT22;646;48.696;9.114;2023-02-03T14:25:47;8.10;99.90
1307;DHT22;646;48.696;9.114;2023-02-03T14:28:18;7.50;99.90
1307;DHT22;646;48.696;9.114;2023-02-03T14:34:05;7.80;99.90
1307;DHT22;646;48.696;9.114;2023-02-03T14:36:47;7.90;99.90
1307;DHT22;646;48.696;9.114;2023-02-03T14:42:15;7.80;99.90
1307;DHT22;646;48.696;9.114;2023-02-03T14:47:35;7.30;99.90
1307;DHT22;646;48.696;9.114;2023-02-03T14:53:33;8.00;99.90
1307;DHT22;646;48.696;9.114;2023-02-03T14:58:43;7.80;99.90
1307;DHT22;646;48.696;9.114;2023-02-03T15:06:43;7.20;99.90
1307;DHT22;646;48.696;9.114;2023-02-03T15:12:00;7.40;99.90
1307;DHT22;646;48.696;9.114;2023-02-03T15:14:27;6.90;99.90
1307;DHT22;646;48.696;9.114;2023-02-03T15:17:01;7.30;99.90
1307;DHT22;646;48.696;9.114;2023-02-03T15:19:39;7.40;99.90
1307;DHT22;646;48.696;9.114;2023-02-03T15:22:25;7.30;99.90
1307;DHT22;646;48.696;9.114;2023-02-03T15:24:55;7.20;99.90
1307;DHT22;646;48.696;9.114;2023-02-03T15:28:29;6.90;99.90
1307;DHT22;646;48.696;9.114;2023-02-03T15:31:05;7.20;99.90
1307;DHT22;646;48.696;9.114;2023-02-03T15:33:35;7.40;99.90
1307;DHT22;646;48.696;9.114;2023-02-03T15:36:16;7.20;99.90
1307;DHT22;646;48.696;9.114;2023-02-03T15:38:47;7.20;99.90
1307;DHT22;646;48.696;9.114;2023-02-03T15:41:22;7.10;99.90
1307;DHT22;646;48.696;9.114;2023-02-03T15:43:52;6.70;99.90
1307;DHT22;646;48.696;9.114;2023-02-03T15:49:05;6.90;99.90
1307;DHT22;646;48.696;9.114;2023-02-03T15:51:46;6.90;99.90
1307;DHT22;646;48.696;9.114;2023-02-03T15:56:43;7.10;99.90
1307;DHT22;646;48.696;9.114;2023-02-03T16:02:12;6.60;99.90
1307;DHT22;646;48.696;9.114;2023-02-03T16:04:39;6.70;99.90
1307;DHT22;646;48.696;9.114;2023-02-03T16:07:05;6.80;99.90
1307;DHT22;646;48.696;9.114;2023-02-03T16:09:31;6.60;99.90
1307;DHT22;646;48.696;9.114;2023-02-03T16:12:24;6.60;99.90
1307;DHT22;646;48.696;9.114;2023-02-03T16:14:51;7.00;99.90
1307;DHT22;646;48.696;9.114;2023-02-03T16:17:35;6.70;99.90
1307;DHT22;646;48.696;9.114;2023-02-03T16:20:20;6.80;99.90
1307;DHT22;646;48.696;9.114;2023-02-03T16:25:28;6.40;99.90
1307;DHT22;646;48.696;9.114;2023-02-03T16:28:00;7.10;99.90
1307;DHT22;646;48.696;9.114;2023-02-03T16:33:55;6.90;99.90
1307;DHT22;646;48.696;9.114;2023-02-03T16:36:41;6.90;99.90
1307;DHT22;646;48.696;9.114;2023-02-03T16:39:26;6.80;99.90
1307;DHT22;646;48.696;9.114;2023-02-03T16:42:16;6.90;99.90
1307;DHT22;646;48.696;9.114;2023-02-03T16:45:00;6.90;99.90
1307;DHT22;646;48.696;9.114;2023-02-03T16:47:45;6.80;99.90
1307;DHT22;646;48.696;9.114;2023-02-03T16:50:29;6.60;99.90
1307;DHT22;646;48.696;9.114;2023-02-03T16:53:16;7.00;99.90
1307;DHT22;646;48.696;9.114;2023-02-03T16:55:47;6.20;99.90
1307;DHT22;646;48.696;9.114;2023-02-03T16:58:13;6.60;99.90
1307;DHT22;646;48.696;9.114;2023-02-03T17:00:43;6.80;99.90
1307;DHT22;646;48.696;9.114;2023-02-03T17:03:23;6.80;99.90
1307;DHT22;646;48.696;9.114;2023-02-03T17:05:50;6.20;99.90
1307;DHT22;646;48.696;9.114;2023-02-03T17:08:18;6.90;99.90
1307;DHT22;646;48.696;9.114;2023-02-03T17:10:44;6.40;99.90
1307;DHT22;646;48.696;9.114;2023-02-03T17:13:10;6.60;99.90
1307;DHT22;646;48.696;9.114;2023-02-03T17:15:41;6.30;99.90
1307;DHT22;646;48.696;9.114;2023-02-03T17:18:07;6.60;99.90
1307;DHT22;646;48.696;9.114;2023-02-03T17:20:36;6.70;99.90
1307;DHT22;646;48.696;9.114;2023-02-03T17:23:02;6.50;99.90
1307;DHT22;646;48.696;9.114;2023-02-03T17:25:28;6.70;99.90
1307;DHT22;646;48.696;9.114;2023-02-03T17:27:53;6.60;99.90
1307;DHT22;646;48.696;9.114;2023-02-03T17:30:19;6.70;99.90
1307;DHT22;646;48.696;9.114;2023-02-03T17:32:44;6.80;99.90
1307;DHT22;646;48.696;9.114;2023-02-03T17:35:10;6.60;99.90
1307;DHT22;646;48.696;9.114;2023-02-03T17:37:36;6.50;99.90
1307;DHT22;646;48.696;9.114;2023-02-03T17:40:02;6.20;99.90
1307;DHT22;646;48.696;9.114;2023-02-03T17:42:28;6.60;99.90
1307;DHT22;646;48.696;9.114;2023-02-03T17:44:53;6.80;99.90
1307;DHT22;646;48.696;9.114;2023-02-03T17:47:19;6.30;99.90
1307;DHT22;646;48.696;9.114;2023-02-03T17:49:45;6.70;99.90
1307;DHT22;646;48.696;9.114;2023-02-03T17:52:13;6.40;99.90
1307;DHT22;646;48.696;9.114;2023-02-03T17:54:39;6.50;99.90
1307;DHT22;646;48.696;9.114;2023-02-03T17:57:05;6.10;99.90
1307;DHT22;646;48.696;9.114;2023-02-03T17:59:30;6.60;99.90
1307;DHT22;646;48.696;9.114;2023-02-03T18:01:58;6.50;99.90
1307;DHT22;646;48.696;9.114;2023-02-03T18:04:23;6.00;99.90
1307;DHT22;646;48.696;9.114;2023-02-03T18:06:49;6.70;99.90
1307;DHT22;646;48.696;9.114;2023-02-03T18:09:14;6.40;99.90
1307;DHT22;646;48.696;9.114;2023-02-03T18:11:41;6.40;99.90
1307;DHT22;646;48.696;9.114;2023-02-03T18:14:07;6.40;99.90
1307;DHT22;646;48.696;9.114;2023-02-03T18:16:34;6.40;99.90
1307;DHT22;646;48.696;9.114;2023-02-03T18:19:02;6.50;99.90
1307;DHT22;646;48.696;9.114;2023-02-03T18:21:29;6.80;99.90
1307;DHT22;646;48.696;9.114;2023-02-03T18:23:57;6.60;99.90
1307;DHT22;646;48.696;9.114;2023-02-03T18:26:27;6.80;99.90
1307;DHT22;646;48.696;9.114;2023-02-03T18:28:54;6.70;99.90
1307;DHT22;646;48.696;9.114;2023-02-03T18:31:20;6.90;99.90
1307;DHT22;646;48.696;9.114;2023-02-03T18:33:46;6.70;99.90
1307;DHT22;646;48.696;9.114;2023-02-03T18:36:13;6.60;99.90
1307;DHT22;646;48.696;9.114;2023-02-03T18:38:40;6.30;99.90
1307;DHT22;646;48.696;9.114;2023-02-03T18:41:26;6.90;99.90
1307;DHT22;646;48.696;9.114;2023-02-03T18:43:52;6.90;99.90
1307;DHT22;646;48.696;9.114;2023-02-03T18:46:24;6.70;99.90
1307;DHT22;646;48.696;9.114;2023-02-03T18:48:50;6.80;99.90
1307;DHT22;646;48.696;9.114;2023-02-03T18:51:18;6.90;99.90
1307;DHT22;646;48.696;9.114;2023-02-03T18:53:44;6.80;99.90
1307;DHT22;646;48.696;9.114;2023-02-03T18:56:17;6.70;99.90
1307;DHT22;646;48.696;9.114;2023-02-03T18:58:43;6.80;99.90
1307;DHT22;646;48.696;9.114;2023-02-03T19:01:09;6.30;99.90
1307;DHT22;646;48.696;9.114;2023-02-03T19:03:34;6.80;99.90
1307;DHT22;646;48.696;9.114;2023-02-03T19:06:00;6.70;99.90
1307;DHT22;646;48.696;9.114;2023-02-03T19:08:25;6.90;99.90
1307;DHT22;646;48.696;9.114;2023-02-03T19:10:52;7.00;99.90
1307;DHT22;646;48.696;9.114;2023-02-03T19:13:19;6.30;99.90
1307;DHT22;646;48.696;9.114;2023-02-03T19:15:45;6.80;99.90
1307;DHT22;646;48.696;9.114;2023-02-03T19:18:12;7.00;99.90
1307;DHT22;646;48.696;9.114;2023-02-03T19:20:38;6.30;99.90
1307;DHT22;646;48.696;9.114;2023-02-03T19:23:04;7.10;99.90
1307;DHT22;646;48.696;9.114;2023-02-03T19:25:35;6.60;99.90